createdAt,value
2023-01-17T00:02:12.621Z,1.45
2023-01-17T00:04:57.780Z,1.35
2023-01-17T00:07:44.039Z,1.48
2023-01-17T00:10:14.670Z,1.45
2023-01-17T00:12:51.250Z,1.85
2023-01-17T00:15:20.181Z,1.67
2023-01-17T00:17:47.687Z,1.63
2023-01-17T00:20:37.456Z,1.70
2023-01-17T00:23:37.045Z,1.73
2023-01-17T00:26:15.489Z,1.40
2023-01-17T00:28:43.549Z,1.77
2023-01-17T00:31:12.124Z,1.30
2023-01-17T00:33:38.883Z,1.40
2023-01-17T00:36:06.438Z,1.45
2023-01-17T00:38:36.039Z,1.60
2023-01-17T00:41:08.566Z,1.40
2023-01-17T00:43:53.990Z,1.17
2023-01-17T00:46:39.804Z,1.00
2023-01-17T00:49:26.294Z,0.98
2023-01-17T00:52:11.725Z,1.17
2023-01-17T00:54:57.019Z,0.90
2023-01-17T00:57:45.409Z,0.90
2023-01-17T01:00:36.214Z,1.30
2023-01-17T01:03:28.282Z,0.90
2023-01-17T01:06:13.655Z,0.75
2023-01-17T01:08:58.880Z,0.60
2023-01-17T01:11:44.229Z,0.70
2023-01-17T01:14:29.846Z,1.00
2023-01-17T01:17:15.168Z,0.50
2023-01-17T01:20:00.547Z,0.43
2023-01-17T01:22:45.729Z,0.52
2023-01-17T01:25:31.626Z,0.40
2023-01-17T01:28:29.570Z,0.20
2023-01-17T01:31:17.461Z,0.40
2023-01-17T01:33:44.271Z,0.30
2023-01-17T01:36:11.140Z,0.35
2023-01-17T01:38:37.999Z,0.55
2023-01-17T01:41:05.661Z,0.45
2023-01-17T01:43:46.657Z,0.40
2023-01-17T01:46:26.218Z,0.30
2023-01-17T01:49:03.398Z,0.80
2023-01-17T01:51:38.428Z,0.40
2023-01-17T01:54:11.491Z,0.55
2023-01-17T01:56:40.565Z,0.75
2023-01-17T01:59:09.919Z,0.82
2023-01-17T02:01:37.269Z,0.57
2023-01-17T02:04:09.738Z,1.00
2023-01-17T02:06:48.892Z,0.60
2023-01-17T02:09:18.287Z,0.57
2023-01-17T02:11:47.249Z,0.35
2023-01-17T02:14:21.908Z,0.68
2023-01-17T02:17:00.591Z,0.60
2023-01-17T02:19:59.984Z,0.90
2023-01-17T02:22:57.493Z,0.80
2023-01-17T02:25:38.861Z,0.80
2023-01-17T02:28:09.098Z,0.70
2023-01-17T02:30:38.325Z,0.77
2023-01-17T02:33:30.247Z,0.50
2023-01-17T02:36:20.025Z,0.50
2023-01-17T02:38:56.855Z,0.65
2023-01-17T02:41:35.569Z,0.40
2023-01-17T02:44:02.938Z,0.68
2023-01-17T02:46:29.898Z,0.50
2023-01-17T02:48:57.956Z,0.55
2023-01-17T02:51:49.210Z,0.70
2023-01-17T02:54:25.541Z,0.43
2023-01-17T02:57:27.565Z,0.57
2023-01-17T03:00:09.613Z,0.80
2023-01-17T03:02:45.270Z,0.80
2023-01-17T03:05:29.095Z,1.00
2023-01-17T03:07:57.160Z,1.02
2023-01-17T03:10:24.476Z,0.60
2023-01-17T03:12:57.343Z,1.33
2023-01-17T03:15:24.553Z,1.48
2023-01-17T03:17:54.987Z,1.52
2023-01-17T03:20:22.706Z,0.80
2023-01-17T03:22:49.708Z,2.08
2023-01-17T03:25:17.378Z,1.05
2023-01-17T03:27:44.355Z,0.60
2023-01-17T03:30:11.994Z,1.08
2023-01-17T03:32:38.828Z,1.05
2023-01-17T03:35:06.307Z,1.20
2023-01-17T03:37:33.103Z,0.63
2023-01-17T03:40:00.192Z,0.88
2023-01-17T03:42:27.256Z,0.70
2023-01-17T03:44:54.098Z,0.93
2023-01-17T03:47:20.888Z,1.50
2023-01-17T03:49:47.704Z,0.75
2023-01-17T03:52:14.574Z,0.93
2023-01-17T03:54:41.360Z,1.02
2023-01-17T03:57:08.693Z,0.70
2023-01-17T03:59:35.743Z,0.98
2023-01-17T04:02:02.818Z,0.80
2023-01-17T04:04:29.962Z,0.90
2023-01-17T04:06:56.757Z,0.90
2023-01-17T04:09:23.597Z,1.33
2023-01-17T04:11:51.037Z,0.73
2023-01-17T04:14:17.953Z,0.80
2023-01-17T04:16:45.402Z,0.82
2023-01-17T04:19:13.570Z,1.10
2023-01-17T04:21:40.479Z,0.90
2023-01-17T04:24:07.577Z,0.60
2023-01-17T04:26:34.419Z,0.73
2023-01-17T04:29:01.538Z,0.80
2023-01-17T04:31:28.354Z,1.00
2023-01-17T04:33:55.198Z,0.60
2023-01-17T04:36:22.016Z,0.93
2023-01-17T04:38:48.798Z,0.68
2023-01-17T04:41:15.845Z,1.33
2023-01-17T04:43:42.732Z,1.42
2023-01-17T04:46:10.160Z,1.20
2023-01-17T04:48:37.208Z,0.70
2023-01-17T04:51:05.314Z,0.98
2023-01-17T04:53:32.596Z,1.35
2023-01-17T04:55:59.428Z,0.77
2023-01-17T04:58:27.727Z,1.27
2023-01-17T05:00:54.916Z,1.00
2023-01-17T05:03:23.093Z,1.23
2023-01-17T05:05:50.221Z,0.82
2023-01-17T05:08:17.064Z,1.00
2023-01-17T05:10:46.922Z,0.85
2023-01-17T05:13:14.255Z,1.40
2023-01-17T05:15:41.323Z,1.35
2023-01-17T05:18:16.003Z,0.90
2023-01-17T05:20:43.131Z,1.10
2023-01-17T05:23:10.925Z,0.85
2023-01-17T05:25:37.735Z,0.90
2023-01-17T05:28:04.713Z,1.80
2023-01-17T05:30:32.900Z,1.52
2023-01-17T05:32:59.964Z,1.10
2023-01-17T05:35:29.697Z,0.93
2023-01-17T05:37:56.811Z,0.95
2023-01-17T05:40:26.727Z,0.98
2023-01-17T05:42:55.496Z,1.00
2023-01-17T05:45:24.279Z,0.82
2023-01-17T05:47:53.390Z,1.05
2023-01-17T05:50:26.382Z,1.20
2023-01-17T05:52:58.934Z,1.30
2023-01-17T05:55:27.212Z,1.05
2023-01-17T05:57:54.550Z,1.48
2023-01-17T06:00:22.524Z,1.45
2023-01-17T06:02:49.700Z,1.00
2023-01-17T06:05:17.001Z,3.92
2023-01-17T06:07:45.892Z,1.00
2023-01-17T06:10:14.559Z,1.38
2023-01-17T06:12:42.710Z,0.90
2023-01-17T06:15:10.597Z,1.40
2023-01-17T06:17:37.550Z,2.55
2023-01-17T06:20:07.366Z,1.48
2023-01-17T06:22:34.833Z,1.70
2023-01-17T06:25:01.859Z,1.58
2023-01-17T06:27:28.822Z,1.17
2023-01-17T06:29:55.675Z,1.25
2023-01-17T06:32:22.620Z,0.93
2023-01-17T06:34:49.450Z,1.83
2023-01-17T06:37:16.535Z,1.10
2023-01-17T06:39:43.437Z,1.05
2023-01-17T06:42:10.340Z,1.27
2023-01-17T06:44:37.598Z,1.30
2023-01-17T06:47:04.466Z,1.33
2023-01-17T06:49:31.308Z,1.67
2023-01-17T06:51:58.175Z,1.67
2023-01-17T06:54:25.080Z,1.60
2023-01-17T06:56:52.017Z,1.10
2023-01-17T06:59:18.817Z,0.70
2023-01-17T07:01:45.790Z,3.20
2023-01-17T07:04:12.649Z,1.33
2023-01-17T07:06:39.529Z,1.17
2023-01-17T07:09:06.609Z,1.60
2023-01-17T07:11:33.409Z,1.95
2023-01-17T07:14:00.196Z,1.10
2023-01-17T07:16:27.082Z,1.40
2023-01-17T07:18:54.853Z,1.38
2023-01-17T07:21:22.681Z,1.83
2023-01-17T07:23:49.512Z,1.38
2023-01-17T07:26:17.362Z,1.15
2023-01-17T07:28:44.361Z,1.40
2023-01-17T07:31:11.300Z,1.55
2023-01-17T07:33:38.304Z,0.95
2023-01-17T07:36:07.350Z,1.42
2023-01-17T07:38:34.878Z,1.15
2023-01-17T07:41:01.954Z,1.50
2023-01-17T07:43:29.247Z,1.27
2023-01-17T07:45:56.451Z,1.10
2023-01-17T07:48:24.846Z,1.08
2023-01-17T07:50:53.229Z,1.08
2023-01-17T07:53:20.911Z,1.05
2023-01-17T07:55:47.807Z,1.58
2023-01-17T07:58:15.541Z,1.40
2023-01-17T08:00:44.837Z,1.40
2023-01-17T08:03:17.051Z,1.30
2023-01-17T08:05:52.971Z,1.42
2023-01-17T08:08:20.189Z,0.80
2023-01-17T08:10:47.234Z,1.52
2023-01-17T08:13:14.229Z,1.17
2023-01-17T08:15:41.161Z,1.17
2023-01-17T08:18:07.959Z,2.00
2023-01-17T08:20:34.975Z,1.40
2023-01-17T08:23:01.819Z,1.00
2023-01-17T08:25:28.759Z,1.05
2023-01-17T08:27:59.085Z,1.20
2023-01-17T08:30:26.832Z,1.27
2023-01-17T08:32:55.472Z,1.75
2023-01-17T08:35:22.753Z,1.23
2023-01-17T08:37:54.616Z,1.40
2023-01-17T08:40:22.039Z,1.92
2023-01-17T08:43:00.359Z,1.60
2023-01-17T08:45:29.329Z,1.60
2023-01-17T08:47:58.544Z,1.85
2023-01-17T08:50:26.092Z,1.73
2023-01-17T08:53:00.937Z,1.77
2023-01-17T08:55:28.198Z,1.70
2023-01-17T08:57:56.805Z,1.90
2023-01-17T09:00:23.657Z,1.77
2023-01-17T09:02:54.240Z,1.50
2023-01-17T09:05:21.245Z,1.80
2023-01-17T09:07:48.372Z,1.92
2023-01-17T09:10:15.408Z,2.22
2023-01-17T09:12:42.276Z,2.08
2023-01-17T09:15:09.635Z,2.20
2023-01-17T09:17:36.440Z,1.58
2023-01-17T09:20:03.757Z,1.75
2023-01-17T09:22:30.633Z,1.48
2023-01-17T09:24:57.614Z,1.75
2023-01-17T09:27:24.502Z,1.70
2023-01-17T09:29:51.396Z,2.03
2023-01-17T09:32:18.367Z,2.78
2023-01-17T09:34:46.893Z,2.15
2023-01-17T09:37:15.767Z,2.13
2023-01-17T09:39:42.546Z,2.08
2023-01-17T09:42:21.719Z,2.50
2023-01-17T09:44:52.812Z,2.60
2023-01-17T09:47:31.779Z,2.60
2023-01-17T09:50:40.774Z,2.25
2023-01-17T09:53:13.732Z,2.33
2023-01-17T09:55:49.274Z,2.65
2023-01-17T09:58:51.360Z,2.55
2023-01-17T10:01:31.096Z,2.50
2023-01-17T10:04:35.859Z,2.53
2023-01-17T10:07:14.792Z,2.92
2023-01-17T10:10:12.742Z,2.17
2023-01-17T10:12:56.241Z,2.50
2023-01-17T10:15:46.392Z,2.40
2023-01-17T10:18:32.028Z,2.10
2023-01-17T10:21:18.121Z,3.42
2023-01-17T10:23:57.568Z,2.63
2023-01-17T10:26:25.869Z,2.33
2023-01-17T10:28:56.568Z,3.10
2023-01-17T10:31:40.670Z,2.55
2023-01-17T10:34:17.076Z,2.97
2023-01-17T10:36:50.079Z,2.85
2023-01-17T10:39:25.365Z,2.70
2023-01-17T10:42:07.302Z,2.58
2023-01-17T10:44:53.222Z,2.60
2023-01-17T10:47:22.897Z,2.97
2023-01-17T10:49:55.205Z,2.75
2023-01-17T10:52:50.727Z,3.17
2023-01-17T10:55:40.439Z,2.92
2023-01-17T10:58:12.496Z,2.95
2023-01-17T11:00:59.278Z,2.33
2023-01-17T11:03:28.532Z,3.13
2023-01-17T11:06:15.001Z,3.67
2023-01-17T11:08:56.745Z,3.30
2023-01-17T11:11:31.034Z,2.40
2023-01-17T11:14:24.031Z,2.67
2023-01-17T11:17:06.642Z,2.13
2023-01-17T11:19:38.568Z,2.53
2023-01-17T11:22:07.415Z,2.70
2023-01-17T11:24:48.461Z,2.47
2023-01-17T11:27:30.943Z,2.53
2023-01-17T11:30:20.507Z,2.75
2023-01-17T11:32:59.926Z,4.18
2023-01-17T11:35:41.386Z,2.33
2023-01-17T11:38:22.642Z,2.60
2023-01-17T11:40:50.670Z,2.97
2023-01-17T11:43:25.769Z,2.42
2023-01-17T11:46:17.920Z,2.83
2023-01-17T11:48:56.288Z,2.90
2023-01-17T11:51:30.907Z,2.30
2023-01-17T11:54:28.088Z,2.10
2023-01-17T11:57:02.318Z,2.17
2023-01-17T11:59:37.642Z,1.75
2023-01-17T12:02:31.964Z,2.30
2023-01-17T12:05:08.293Z,4.05
2023-01-17T12:08:06.432Z,2.05
2023-01-17T12:10:42.986Z,3.13
2023-01-17T12:13:49.442Z,1.92
2023-01-17T12:16:44.222Z,2.20
2023-01-17T12:19:45.645Z,1.85
2023-01-17T12:22:43.578Z,2.40
2023-01-17T12:25:31.983Z,2.33
2023-01-17T12:28:19.018Z,2.08
2023-01-17T12:30:58.349Z,2.08
2023-01-17T12:33:47.519Z,2.00
2023-01-17T12:36:35.040Z,2.08
2023-01-17T12:39:06.855Z,2.20
2023-01-17T12:42:08.541Z,2.20
2023-01-17T12:44:44.786Z,2.20
2023-01-17T12:47:15.312Z,1.63
2023-01-17T12:49:45.369Z,1.60
2023-01-17T12:52:49.522Z,1.83
2023-01-17T12:57:54.126Z,1.50
2023-01-17T13:00:25.598Z,2.13
2023-01-17T13:03:08.504Z,1.33
2023-01-17T13:05:42.325Z,1.90
2023-01-17T13:08:14.994Z,1.50
2023-01-17T13:11:09.677Z,1.45
2023-01-17T13:13:36.902Z,1.70
2023-01-17T13:16:14.065Z,1.60
2023-01-17T13:18:48.205Z,1.80
2023-01-17T13:21:35.588Z,1.88
2023-01-17T13:24:21.214Z,2.38
2023-01-17T13:26:51.192Z,1.95
2023-01-17T13:30:07.390Z,1.80
2023-01-17T13:32:56.018Z,1.33
2023-01-17T13:35:49.538Z,1.52
2023-01-17T13:38:30.325Z,2.15
2023-01-17T13:41:09.013Z,2.13
2023-01-17T13:43:39.552Z,1.60
2023-01-17T13:46:07.068Z,1.55
2023-01-17T13:48:38.438Z,1.58
2023-01-17T13:51:09.933Z,1.42
2023-01-17T13:53:40.294Z,1.30
2023-01-17T13:56:23.177Z,1.63
2023-01-17T13:58:50.447Z,1.35
2023-01-17T14:01:42.843Z,1.60
2023-01-17T14:04:11.475Z,1.52
2023-01-17T14:06:44.219Z,2.22
2023-01-17T14:09:13.871Z,2.10
2023-01-17T14:11:59.648Z,1.98
2023-01-17T14:14:41.754Z,1.35
2023-01-17T14:17:28.567Z,1.20
2023-01-17T14:20:12.457Z,1.75
2023-01-17T14:22:47.861Z,1.75
2023-01-17T14:25:41.624Z,1.58
2023-01-17T14:28:31.938Z,1.30
2023-01-17T14:31:00.961Z,1.50
2023-01-17T14:33:36.520Z,1.40
2023-01-17T14:36:21.953Z,1.05
2023-01-17T14:38:48.771Z,2.08
2023-01-17T14:41:22.120Z,1.80
2023-01-17T14:46:22.942Z,1.17
2023-01-17T14:51:21.393Z,1.58
2023-01-17T14:53:59.452Z,1.30
2023-01-17T14:56:28.976Z,1.30
2023-01-17T14:59:17.124Z,1.40
2023-01-17T15:02:06.001Z,1.70
2023-01-17T15:04:39.225Z,1.20
2023-01-17T15:07:06.830Z,1.23
2023-01-17T15:09:37.155Z,1.90
2023-01-17T15:12:04.899Z,1.83
2023-01-17T15:14:37.038Z,1.90
2023-01-17T15:17:16.117Z,1.75
2023-01-17T15:19:45.158Z,1.70
2023-01-17T15:22:12.638Z,1.50
2023-01-17T15:24:44.676Z,1.83
2023-01-17T15:27:17.008Z,1.52
2023-01-17T15:29:45.876Z,1.23
2023-01-17T15:32:22.950Z,2.03
2023-01-17T15:34:51.381Z,2.08
2023-01-17T15:37:36.539Z,2.33
2023-01-17T15:40:23.380Z,2.47
2023-01-17T15:42:56.723Z,2.10
2023-01-17T15:47:53.904Z,1.58
2023-01-17T15:50:21.353Z,1.60
2023-01-17T15:52:53.829Z,1.73
2023-01-17T15:55:29.588Z,1.80
2023-01-17T15:57:56.887Z,2.00
2023-01-17T16:00:37.820Z,2.40
2023-01-17T16:03:34.126Z,1.70
2023-01-17T16:06:02.986Z,2.15
2023-01-17T16:08:38.593Z,1.52
2023-01-17T16:11:06.976Z,1.70
2023-01-17T16:13:37.858Z,2.22
2023-01-17T16:16:19.131Z,1.80
2023-01-17T16:18:47.125Z,2.05
2023-01-17T16:21:23.592Z,1.60
2023-01-17T16:23:51.166Z,1.67
2023-01-17T16:26:18.601Z,1.27
2023-01-17T16:28:46.176Z,1.65
2023-01-17T16:31:13.241Z,1.67
2023-01-17T16:33:42.379Z,1.65
2023-01-17T16:36:15.103Z,1.75
2023-01-17T16:38:43.350Z,2.03
2023-01-17T16:41:27.821Z,2.10
2023-01-17T16:44:13.456Z,2.35
2023-01-17T16:46:40.455Z,5.25
2023-01-17T16:49:07.405Z,3.65
2023-01-17T16:51:34.557Z,10.32
2023-01-17T16:54:01.866Z,5.63
2023-01-17T16:56:28.839Z,4.65
2023-01-17T16:58:56.600Z,3.50
2023-01-17T17:01:25.403Z,2.67
2023-01-17T17:03:52.445Z,3.05
2023-01-17T17:06:19.408Z,4.47
2023-01-17T17:08:46.456Z,2.30
2023-01-17T17:11:14.906Z,2.50
2023-01-17T17:13:43.938Z,2.03
2023-01-17T17:16:19.531Z,2.75
2023-01-17T17:18:53.883Z,2.00
2023-01-17T17:21:20.942Z,2.40
2023-01-17T17:23:50.914Z,2.35
2023-01-17T17:26:18.542Z,2.53
2023-01-17T17:28:45.353Z,2.22
2023-01-17T17:31:12.293Z,2.72
2023-01-17T17:33:39.250Z,2.25
2023-01-17T17:36:15.581Z,2.05
2023-01-17T17:41:27.864Z,2.65
2023-01-17T17:43:55.140Z,2.75
2023-01-17T17:46:24.581Z,2.33
2023-01-17T17:48:51.549Z,2.38
2023-01-17T17:51:44.902Z,2.42
2023-01-17T17:54:13.828Z,2.83
2023-01-17T17:56:42.536Z,2.53
2023-01-17T17:59:10.103Z,2.83
2023-01-17T18:01:41.408Z,4.07
2023-01-17T18:04:09.980Z,4.00
2023-01-17T18:06:38.645Z,7.70
2023-01-17T18:09:10.887Z,3.45
2023-01-17T18:11:39.819Z,3.10
2023-01-17T18:14:12.088Z,3.80
2023-01-17T18:16:41.878Z,2.22
2023-01-17T18:19:13.985Z,2.85
2023-01-17T18:21:41.221Z,3.05
2023-01-17T18:24:11.308Z,2.90
2023-01-17T18:26:45.034Z,2.63
2023-01-17T18:29:15.753Z,2.35
2023-01-17T18:31:46.709Z,2.78
2023-01-17T18:34:21.389Z,2.88
2023-01-17T18:36:48.571Z,2.97
2023-01-17T18:39:18.100Z,2.85
2023-01-17T18:41:45.244Z,2.60
2023-01-17T18:44:12.506Z,2.38
2023-01-17T18:46:40.598Z,2.30
2023-01-17T18:49:09.913Z,2.67
2023-01-17T18:51:37.009Z,2.80
2023-01-17T18:54:06.957Z,2.25
2023-01-17T18:56:35.448Z,2.38
2023-01-17T18:59:05.795Z,2.60
2023-01-17T19:01:35.861Z,2.00
2023-01-17T19:04:04.860Z,2.67
2023-01-17T19:06:34.667Z,3.13
2023-01-17T19:09:01.878Z,2.50
2023-01-17T19:11:29.920Z,3.08
2023-01-17T19:13:57.842Z,2.90
2023-01-17T19:16:30.454Z,2.50
2023-01-17T19:19:02.334Z,3.30
2023-01-17T19:21:30.381Z,3.13
2023-01-17T19:23:58.319Z,3.00
2023-01-17T19:26:27.365Z,3.00
2023-01-17T19:28:56.523Z,3.58
2023-01-17T19:31:28.961Z,2.40
2023-01-17T19:33:57.748Z,2.67
2023-01-17T19:36:27.553Z,3.00
2023-01-17T19:39:04.546Z,3.17
2023-01-17T19:41:34.634Z,2.70
2023-01-17T19:44:06.810Z,3.20
2023-01-17T19:46:34.973Z,2.75
2023-01-17T19:49:03.044Z,2.97
2023-01-17T19:51:30.058Z,3.05
2023-01-17T19:53:59.965Z,3.40
2023-01-17T19:56:27.692Z,3.50
2023-01-17T19:58:54.648Z,2.83
2023-01-17T20:01:28.377Z,3.17
2023-01-17T20:03:57.765Z,3.50
2023-01-17T20:06:29.133Z,3.80
2023-01-17T20:08:57.218Z,3.47
2023-01-17T20:11:25.780Z,3.67
2023-01-17T20:13:55.278Z,3.60
2023-01-17T20:16:30.387Z,3.33
2023-01-17T20:18:58.693Z,4.00
2023-01-17T20:21:27.944Z,3.50
2023-01-17T20:23:57.007Z,4.22
2023-01-17T20:26:29.698Z,3.70
2023-01-17T20:28:57.000Z,3.50
2023-01-17T20:31:25.988Z,3.10
2023-01-17T20:33:55.091Z,4.03
2023-01-17T20:36:24.823Z,3.83
2023-01-17T20:38:53.328Z,4.10
2023-01-17T20:41:25.696Z,4.43
2023-01-17T20:43:54.873Z,3.87
2023-01-17T20:46:24.642Z,5.10
2023-01-17T20:48:54.405Z,4.20
2023-01-17T20:51:23.005Z,4.63
2023-01-17T20:53:59.315Z,4.50
2023-01-17T20:56:26.904Z,4.50
2023-01-17T20:58:56.092Z,3.38
2023-01-17T21:01:23.347Z,3.95
2023-01-17T21:03:53.367Z,3.95
2023-01-17T21:06:21.859Z,4.65
2023-01-17T21:08:49.550Z,4.00
2023-01-17T21:11:19.756Z,3.63
2023-01-17T21:13:48.792Z,3.78
2023-01-17T21:16:20.432Z,3.92
2023-01-17T21:18:48.719Z,4.05
2023-01-17T21:21:17.938Z,4.30
2023-01-17T21:23:45.552Z,4.68
2023-01-17T21:26:15.290Z,4.07
2023-01-17T21:28:44.169Z,4.00
2023-01-17T21:31:23.000Z,4.28
2023-01-17T21:33:52.783Z,3.63
2023-01-17T21:36:21.733Z,3.72
2023-01-17T21:38:57.360Z,3.55
2023-01-17T21:41:27.446Z,4.40
2023-01-17T21:43:58.828Z,3.83
2023-01-17T21:46:27.303Z,3.42
2023-01-17T21:48:56.665Z,3.83
2023-01-17T21:51:24.378Z,3.42
2023-01-17T21:53:51.292Z,4.80
2023-01-17T21:56:36.535Z,4.18
2023-01-17T21:59:03.419Z,4.32
2023-01-17T22:01:33.066Z,4.07
2023-01-17T22:04:02.862Z,3.85
2023-01-17T22:06:34.413Z,3.55
2023-01-17T22:09:01.364Z,3.20
2023-01-17T22:11:30.598Z,3.97
2023-01-17T22:13:59.253Z,3.25
2023-01-17T22:16:26.562Z,3.63
2023-01-17T22:18:53.523Z,4.10
2023-01-17T22:21:26.172Z,3.45
2023-01-17T22:23:55.705Z,3.30
2023-01-17T22:26:27.915Z,3.55
2023-01-17T22:28:55.612Z,3.75
2023-01-17T22:31:24.108Z,3.40
2023-01-17T22:33:59.991Z,3.63
2023-01-17T22:36:27.692Z,3.25
2023-01-17T22:38:54.704Z,3.95
2023-01-17T22:41:31.197Z,3.38
2023-01-17T22:44:00.196Z,3.60
2023-01-17T22:46:29.667Z,3.80
2023-01-17T22:48:57.196Z,3.10
2023-01-17T22:51:25.961Z,3.90
2023-01-17T22:53:54.972Z,3.40
2023-01-17T22:56:27.976Z,3.20
2023-01-17T22:58:55.264Z,3.70
2023-01-17T23:01:24.724Z,3.40
2023-01-17T23:04:02.489Z,3.40
2023-01-17T23:06:35.343Z,3.97
2023-01-17T23:09:05.957Z,3.53
2023-01-17T23:11:42.411Z,3.60
2023-01-17T23:14:19.179Z,3.72
2023-01-17T23:17:12.325Z,4.13
2023-01-17T23:19:51.225Z,3.40
2023-01-17T23:22:24.467Z,3.75
2023-01-17T23:24:58.587Z,4.22
2023-01-17T23:27:55.311Z,3.33
2023-01-17T23:30:34.752Z,3.65
2023-01-17T23:33:07.355Z,3.50
2023-01-17T23:35:41.429Z,3.88
2023-01-17T23:38:29.482Z,3.40
2023-01-17T23:41:35.403Z,4.10
2023-01-17T23:44:04.778Z,4.20
2023-01-17T23:46:31.603Z,3.45
2023-01-17T23:48:58.501Z,3.70
2023-01-17T23:51:25.453Z,3.60
2023-01-17T23:53:57.198Z,3.70
2023-01-17T23:56:32.845Z,2.88
2023-01-17T23:59:01.103Z,3.40
